createdAt,value
2022-09-10T00:01:27.350Z,13.04
2022-09-10T00:03:55.859Z,13.05
2022-09-10T00:06:27.656Z,13.05
2022-09-10T00:08:57.715Z,13.03
2022-09-10T00:11:30.402Z,13.04
2022-09-10T00:14:00.119Z,13.04
2022-09-10T00:16:29.129Z,13.01
2022-09-10T00:19:01.094Z,12.97
2022-09-10T00:21:29.865Z,12.98
2022-09-10T00:23:58.638Z,13.01
2022-09-10T00:26:30.094Z,13.00
2022-09-10T00:28:59.799Z,13.00
2022-09-10T00:31:29.598Z,12.99
2022-09-10T00:33:59.129Z,12.98
2022-09-10T00:36:29.711Z,12.96
2022-09-10T00:39:02.245Z,12.96
2022-09-10T00:41:30.942Z,12.96
2022-09-10T00:44:04.973Z,12.94
2022-09-10T00:46:50.342Z,12.91
2022-09-10T00:49:43.622Z,12.87
2022-09-10T00:52:12.657Z,12.86
2022-09-10T00:54:42.567Z,12.85
2022-09-10T00:57:14.782Z,12.86
2022-09-10T00:59:48.439Z,12.86
2022-09-10T01:02:16.171Z,12.84
2022-09-10T01:04:44.906Z,12.86
2022-09-10T01:07:15.541Z,12.85
2022-09-10T01:09:43.726Z,12.83
2022-09-10T01:12:42.211Z,12.81
2022-09-10T01:15:41.399Z,12.79
2022-09-10T01:18:39.710Z,12.81
2022-09-10T01:21:28.284Z,12.85
2022-09-10T01:24:12.626Z,12.85
2022-09-10T01:26:43.380Z,12.84
2022-09-10T01:29:19.824Z,12.88
2022-09-10T01:31:51.101Z,12.93
2022-09-10T01:34:27.036Z,12.95
2022-09-10T01:37:01.211Z,12.95
2022-09-10T01:39:29.597Z,12.94
2022-09-10T01:42:00.132Z,12.97
2022-09-10T01:44:48.596Z,12.96
2022-09-10T01:47:45.303Z,12.90
2022-09-10T01:50:32.645Z,12.91
2022-09-10T01:53:33.597Z,12.93
2022-09-10T01:56:23.056Z,12.96
2022-09-10T01:58:54.632Z,12.96
2022-09-10T02:01:40.622Z,12.98
2022-09-10T02:04:14.657Z,13.00
2022-09-10T02:06:47.826Z,13.01
2022-09-10T02:09:18.558Z,12.98
2022-09-10T02:11:49.948Z,12.97
2022-09-10T02:14:34.061Z,12.96
2022-09-10T02:17:19.149Z,12.94
2022-09-10T02:19:51.490Z,12.93
2022-09-10T02:22:23.799Z,12.91
2022-09-10T02:24:52.560Z,12.87
2022-09-10T02:27:20.354Z,12.86
2022-09-10T02:29:49.389Z,12.87
2022-09-10T02:32:17.292Z,12.90
2022-09-10T02:34:45.476Z,12.90
2022-09-10T02:37:13.874Z,12.89
2022-09-10T02:39:41.964Z,12.88
2022-09-10T02:42:09.728Z,12.87
2022-09-10T02:44:37.558Z,12.83
2022-09-10T02:47:06.138Z,12.81
2022-09-10T02:49:34.617Z,12.80
2022-09-10T02:52:03.411Z,12.78
2022-09-10T02:54:31.155Z,12.79
2022-09-10T02:57:00.175Z,12.82
2022-09-10T02:59:28.558Z,12.85
2022-09-10T03:01:56.373Z,12.84
2022-09-10T03:04:24.311Z,12.82
2022-09-10T03:06:53.504Z,12.84
2022-09-10T03:09:22.690Z,12.87
2022-09-10T03:11:51.580Z,12.89
2022-09-10T03:14:23.140Z,12.86
2022-09-10T03:16:50.980Z,12.83
2022-09-10T03:19:18.637Z,12.79
2022-09-10T03:21:47.351Z,12.75
2022-09-10T03:24:15.643Z,12.73
2022-09-10T03:26:44.467Z,12.75
2022-09-10T03:29:12.671Z,12.76
2022-09-10T03:31:40.674Z,12.76
2022-09-10T03:34:12.529Z,12.76
2022-09-10T03:36:40.605Z,12.79
2022-09-10T03:39:08.764Z,12.79
2022-09-10T03:41:37.363Z,12.77
2022-09-10T03:44:06.145Z,12.74
2022-09-10T03:46:33.761Z,12.74
2022-09-10T03:49:03.307Z,12.75
2022-09-10T03:51:31.638Z,12.77
2022-09-10T03:54:00.204Z,12.75
2022-09-10T03:56:28.268Z,12.77
2022-09-10T03:58:56.837Z,12.82
2022-09-10T04:01:27.378Z,12.89
2022-09-10T04:03:56.671Z,12.94
2022-09-10T04:06:26.324Z,12.94
2022-09-10T04:08:54.086Z,12.93
2022-09-10T04:11:27.484Z,12.90
2022-09-10T04:13:56.667Z,12.89
2022-09-10T04:16:25.003Z,12.86
2022-09-10T04:18:52.685Z,12.83
2022-09-10T04:21:20.541Z,12.81
2022-09-10T04:23:54.655Z,12.85
2022-09-10T04:26:23.260Z,12.88
2022-09-10T04:28:51.263Z,12.90
2022-09-10T04:31:19.620Z,12.92
2022-09-10T04:33:48.417Z,12.92
2022-09-10T04:36:19.227Z,12.95
2022-09-10T04:38:46.977Z,12.93
2022-09-10T04:41:18.137Z,12.91
2022-09-10T04:43:46.306Z,12.87
2022-09-10T04:46:14.077Z,12.85
2022-09-10T04:48:43.800Z,12.87
2022-09-10T04:51:16.491Z,12.89
2022-09-10T04:53:46.845Z,12.90
2022-09-10T04:56:15.582Z,12.91
2022-09-10T04:58:44.150Z,12.93
2022-09-10T05:01:13.340Z,12.94
2022-09-10T05:03:42.670Z,12.92
2022-09-10T05:06:10.391Z,12.94
2022-09-10T05:08:38.300Z,12.97
2022-09-10T05:11:06.501Z,12.98
2022-09-10T05:13:34.981Z,12.99
2022-09-10T05:16:02.870Z,12.98
2022-09-10T05:18:34.022Z,12.99
2022-09-10T05:21:02.065Z,12.98
2022-09-10T05:23:30.094Z,12.98
2022-09-10T05:26:00.283Z,12.96
2022-09-10T05:28:28.684Z,12.97
2022-09-10T05:30:56.760Z,12.98
2022-09-10T05:33:27.324Z,12.97
2022-09-10T05:35:55.624Z,12.98
2022-09-10T05:38:24.798Z,12.97
2022-09-10T05:40:52.716Z,12.95
2022-09-10T05:43:20.918Z,12.95
2022-09-10T05:45:51.880Z,12.95
2022-09-10T05:48:21.187Z,12.93
2022-09-10T05:50:50.792Z,12.91
2022-09-10T05:53:18.832Z,12.95
2022-09-10T05:55:46.431Z,12.95
2022-09-10T05:58:14.296Z,12.94
2022-09-10T06:00:45.271Z,12.97
2022-09-10T06:03:14.559Z,13.03
2022-09-10T06:05:52.533Z,13.09
2022-09-10T06:08:25.116Z,13.10
2022-09-10T06:11:00.502Z,13.12
2022-09-10T06:13:33.850Z,13.16
2022-09-10T06:16:02.023Z,13.15
2022-09-10T06:18:31.961Z,13.14
2022-09-10T06:21:10.141Z,13.14
2022-09-10T06:23:39.149Z,13.16
2022-09-10T06:26:10.316Z,13.18
2022-09-10T06:28:38.990Z,13.22
2022-09-10T06:31:10.915Z,13.25
2022-09-10T06:33:38.627Z,13.26
2022-09-10T06:36:06.968Z,13.30
2022-09-10T06:38:36.002Z,13.32
2022-09-10T06:41:08.872Z,13.35
2022-09-10T06:43:41.497Z,13.34
2022-09-10T06:46:51.194Z,13.38
2022-09-10T06:49:11.697Z,13.41
2022-09-10T06:51:39.790Z,13.41
2022-09-10T06:54:09.389Z,13.43
2022-09-10T06:56:38.094Z,13.48
2022-09-10T06:59:06.281Z,13.51
2022-09-10T07:01:38.247Z,13.53
2022-09-10T07:04:06.788Z,13.56
2022-09-10T07:06:35.975Z,13.61
2022-09-10T07:09:06.828Z,13.67
2022-09-10T07:11:41.758Z,13.74
2022-09-10T07:14:13.962Z,13.77
2022-09-10T07:16:42.385Z,13.80
2022-09-10T07:19:14.784Z,13.85
2022-09-10T07:21:45.267Z,13.89
2022-09-10T07:24:15.465Z,13.89
2022-09-10T07:26:59.404Z,13.93
2022-09-10T07:29:31.167Z,14.05
2022-09-10T07:32:00.444Z,14.17
2022-09-10T07:34:30.061Z,14.26
2022-09-10T07:36:57.665Z,14.32
2022-09-10T07:39:26.819Z,14.34
2022-09-10T07:41:57.149Z,14.32
2022-09-10T07:44:29.189Z,14.31
2022-09-10T07:47:03.430Z,14.33
2022-09-10T07:49:33.410Z,14.38
2022-09-10T07:52:00.981Z,14.44
2022-09-10T07:54:37.279Z,14.49
2022-09-10T07:57:06.361Z,14.49
2022-09-10T07:59:35.474Z,14.47
2022-09-10T08:02:06.475Z,14.46
2022-09-10T08:04:37.574Z,14.47
2022-09-10T08:07:08.443Z,14.48
2022-09-10T08:09:38.123Z,14.49
2022-09-10T08:12:08.026Z,14.48
2022-09-10T08:14:38.987Z,14.44
2022-09-10T08:17:06.889Z,14.41
2022-09-10T08:19:39.419Z,14.45
2022-09-10T08:22:11.454Z,14.50
2022-09-10T08:24:44.382Z,14.58
2022-09-10T08:27:12.245Z,14.67
2022-09-10T08:29:40.590Z,14.78
2022-09-10T08:32:12.862Z,14.89
2022-09-10T08:34:41.338Z,14.99
2022-09-10T08:37:10.869Z,15.00
2022-09-10T08:39:39.019Z,15.00
2022-09-10T08:42:09.251Z,14.99
2022-09-10T08:44:58.880Z,15.01
2022-09-10T08:47:45.633Z,14.99
2022-09-10T08:50:30.001Z,14.96
2022-09-10T08:53:13.232Z,14.92
2022-09-10T08:55:47.099Z,14.82
2022-09-10T08:58:20.835Z,14.78
2022-09-10T09:00:55.870Z,14.76
2022-09-10T09:03:42.891Z,14.70
2022-09-10T09:06:24.989Z,14.62
2022-09-10T09:08:54.306Z,14.59
2022-09-10T09:11:31.962Z,14.52
2022-09-10T09:14:12.881Z,14.46
2022-09-10T09:16:47.031Z,14.44
2022-09-10T09:19:18.206Z,14.42
2022-09-10T09:21:53.189Z,14.38
2022-09-10T09:24:24.628Z,14.40
2022-09-10T09:27:01.813Z,14.46
2022-09-10T09:29:46.148Z,14.50
2022-09-10T09:32:17.802Z,14.56
2022-09-10T09:35:07.388Z,14.62
2022-09-10T09:37:37.913Z,14.66
2022-09-10T09:40:16.662Z,14.67
2022-09-10T09:43:04.743Z,14.69
2022-09-10T09:45:38.466Z,14.72
2022-09-10T09:48:10.030Z,14.71
2022-09-10T09:50:41.737Z,14.68
2022-09-10T09:53:26.972Z,14.68
2022-09-10T09:56:04.602Z,14.72
2022-09-10T09:58:35.361Z,14.74
2022-09-10T10:01:05.710Z,14.74
2022-09-10T10:03:42.357Z,14.76
2022-09-10T10:06:12.097Z,14.77
2022-09-10T10:08:44.185Z,14.76
2022-09-10T10:11:20.448Z,14.77
2022-09-10T10:13:52.927Z,14.78
2022-09-10T10:16:36.618Z,14.79
2022-09-10T10:19:40.274Z,14.80
2022-09-10T10:22:13.840Z,14.84
2022-09-10T10:24:42.455Z,14.89
2022-09-10T10:27:17.533Z,14.97
2022-09-10T10:29:53.964Z,15.05
2022-09-10T10:32:34.553Z,15.09
2022-09-10T10:35:16.447Z,15.09
2022-09-10T10:37:51.977Z,15.11
2022-09-10T10:40:30.391Z,15.10
2022-09-10T10:43:16.620Z,15.10
2022-09-10T10:46:11.291Z,15.06
2022-09-10T10:48:50.723Z,14.92
2022-09-10T10:51:41.325Z,14.87
2022-09-10T10:54:22.290Z,14.89
2022-09-10T10:56:59.903Z,14.90
2022-09-10T10:59:33.427Z,14.85
2022-09-10T11:02:12.604Z,14.84
2022-09-10T11:04:46.644Z,14.84
2022-09-10T11:07:21.597Z,14.87
2022-09-10T11:10:11.617Z,14.87
2022-09-10T11:12:49.218Z,14.88
2022-09-10T11:15:28.911Z,14.92
2022-09-10T11:18:29.536Z,14.95
2022-09-10T11:21:03.258Z,15.01
2022-09-10T11:24:00.285Z,15.08
2022-09-10T11:26:38.997Z,15.11
2022-09-10T11:29:28.694Z,15.11
2022-09-10T11:32:35.991Z,15.15
2022-09-10T11:35:12.805Z,15.15
2022-09-10T11:38:01.230Z,15.15
2022-09-10T11:40:52.620Z,15.15
2022-09-10T11:43:33.238Z,15.13
2022-09-10T11:46:05.843Z,15.13
2022-09-10T11:48:42.363Z,15.15
2022-09-10T11:51:37.647Z,15.17
2022-09-10T11:54:13.408Z,15.17
2022-09-10T11:56:46.941Z,15.15
2022-09-10T11:59:24.552Z,15.15
2022-09-10T12:02:24.143Z,15.16
2022-09-10T12:05:10.782Z,15.19
2022-09-10T12:07:50.365Z,15.21
2022-09-10T12:10:50.408Z,15.21
2022-09-10T12:13:18.228Z,15.24
2022-09-10T12:15:57.542Z,15.22
2022-09-10T12:18:32.417Z,15.22
2022-09-10T12:21:08.085Z,15.21
2022-09-10T12:23:39.911Z,15.16
2022-09-10T12:26:16.291Z,15.09
2022-09-10T12:29:01.494Z,15.08
2022-09-10T12:32:05.220Z,15.08
2022-09-10T12:34:33.378Z,15.04
2022-09-10T12:37:00.929Z,15.01
2022-09-10T12:39:29.400Z,15.00
2022-09-10T12:42:22.896Z,14.97
2022-09-10T12:44:50.601Z,14.89
2022-09-10T12:47:18.114Z,14.85
2022-09-10T12:49:52.877Z,14.81
2022-09-10T12:52:31.975Z,14.79
2022-09-10T12:55:31.890Z,14.76
2022-09-10T12:58:12.404Z,14.75
2022-09-10T13:00:56.010Z,14.75
2022-09-10T13:03:28.959Z,14.73
2022-09-10T13:06:00.639Z,14.73
2022-09-10T13:08:33.906Z,14.72
2022-09-10T13:11:03.129Z,14.70
2022-09-10T13:13:46.673Z,14.64
2022-09-10T13:16:38.279Z,14.56
2022-09-10T13:19:22.052Z,14.52
2022-09-10T13:21:52.247Z,14.50
2022-09-10T13:24:37.085Z,14.48
2022-09-10T13:27:08.337Z,14.48
2022-09-10T13:29:39.836Z,14.50
2022-09-10T13:32:15.141Z,14.52
2022-09-10T13:34:49.973Z,14.60
2022-09-10T13:37:48.573Z,14.65
2022-09-10T13:40:48.831Z,14.67
2022-09-10T13:43:48.837Z,14.64
2022-09-10T13:46:31.081Z,14.57
2022-09-10T13:49:12.538Z,14.50
2022-09-10T13:51:58.523Z,14.44
2022-09-10T13:54:35.277Z,14.40
2022-09-10T13:57:34.903Z,14.37
2022-09-10T14:00:18.846Z,14.37
2022-09-10T14:02:53.079Z,14.37
2022-09-10T14:05:35.229Z,14.36
2022-09-10T14:08:27.564Z,14.32
2022-09-10T14:11:15.838Z,14.25
2022-09-10T14:14:05.841Z,14.22
2022-09-10T14:16:33.370Z,14.19
2022-09-10T14:19:04.035Z,14.15
2022-09-10T14:21:32.298Z,14.15
2022-09-10T14:24:00.140Z,14.17
2022-09-10T14:26:30.424Z,14.24
2022-09-10T14:29:22.623Z,14.28
2022-09-10T14:31:50.362Z,14.25
2022-09-10T14:34:32.293Z,14.21
2022-09-10T14:37:02.167Z,14.18
2022-09-10T14:39:30.096Z,14.15
2022-09-10T14:42:29.887Z,14.13
2022-09-10T14:44:57.534Z,14.09
2022-09-10T14:47:34.782Z,14.04
2022-09-10T14:50:34.721Z,14.01
2022-09-10T14:53:02.862Z,13.97
2022-09-10T14:55:32.308Z,13.96
2022-09-10T14:58:00.078Z,13.96
2022-09-10T15:00:28.203Z,13.96
2022-09-10T15:02:57.189Z,13.95
2022-09-10T15:05:24.810Z,13.92
2022-09-10T15:07:52.396Z,13.88
2022-09-10T15:10:20.487Z,13.89
2022-09-10T15:12:49.783Z,13.87
2022-09-10T15:15:18.022Z,13.84
2022-09-10T15:17:45.630Z,13.85
2022-09-10T15:20:16.769Z,13.89
2022-09-10T15:22:44.835Z,13.93
2022-09-10T15:25:33.835Z,13.98
2022-09-10T15:28:04.044Z,14.04
2022-09-10T15:30:31.761Z,14.04
2022-09-10T15:33:00.074Z,14.01
2022-09-10T15:35:28.767Z,13.93
2022-09-10T15:37:57.647Z,13.87
2022-09-10T15:40:25.249Z,13.81
2022-09-10T15:42:52.958Z,13.76
2022-09-10T15:45:20.563Z,13.72
2022-09-10T15:47:48.243Z,13.70
2022-09-10T15:50:16.682Z,13.67
2022-09-10T15:52:44.949Z,13.64
2022-09-10T15:55:13.232Z,13.63
2022-09-10T15:57:41.026Z,13.60
2022-09-10T16:00:09.494Z,13.61
2022-09-10T16:02:37.374Z,13.61
2022-09-10T16:05:05.931Z,13.59
2022-09-10T16:07:33.589Z,13.59
2022-09-10T16:10:01.992Z,13.60
2022-09-10T16:12:31.179Z,13.62
2022-09-10T16:15:00.809Z,13.63
2022-09-10T16:17:28.499Z,13.64
2022-09-10T16:19:56.425Z,13.63
2022-09-10T16:22:24.013Z,13.61
2022-09-10T16:24:51.888Z,13.56
2022-09-10T16:27:19.704Z,13.54
2022-09-10T16:29:48.647Z,13.52
2022-09-10T16:32:16.308Z,13.53
2022-09-10T16:34:44.064Z,13.51
2022-09-10T16:37:11.691Z,13.46
2022-09-10T16:39:40.246Z,13.47
2022-09-10T16:42:08.254Z,13.44
2022-09-10T16:44:36.236Z,13.44
2022-09-10T16:47:03.971Z,13.46
2022-09-10T16:49:32.485Z,13.49
2022-09-10T16:52:00.072Z,13.50
2022-09-10T16:54:31.788Z,13.49
2022-09-10T16:56:59.400Z,13.48
2022-09-10T16:59:28.049Z,13.46
2022-09-10T17:01:59.037Z,13.43
2022-09-10T17:04:29.298Z,13.38
2022-09-10T17:06:58.063Z,13.34
2022-09-10T17:09:26.261Z,13.34
2022-09-10T17:11:54.213Z,13.32
2022-09-10T17:14:22.159Z,13.30
2022-09-10T17:16:50.075Z,13.31
2022-09-10T17:19:23.665Z,13.32
2022-09-10T17:21:55.133Z,13.29
2022-09-10T17:24:26.360Z,13.28
2022-09-10T17:26:57.924Z,13.30
2022-09-10T17:29:25.826Z,13.36
2022-09-10T17:31:57.341Z,13.41
2022-09-10T17:34:26.346Z,13.43
2022-09-10T17:36:54.451Z,13.43
2022-09-10T17:39:22.704Z,13.44
2022-09-10T17:41:50.290Z,13.46
2022-09-10T17:44:18.138Z,13.46
2022-09-10T17:46:46.373Z,13.46
2022-09-10T17:49:15.530Z,13.50
2022-09-10T17:51:43.993Z,13.55
2022-09-10T17:54:13.029Z,13.58
2022-09-10T17:56:41.926Z,13.57
2022-09-10T17:59:12.108Z,13.56
2022-09-10T18:01:40.549Z,13.55
2022-09-10T18:04:12.556Z,13.54
2022-09-10T18:06:40.826Z,13.51
2022-09-10T18:09:08.597Z,13.49
2022-09-10T18:11:39.823Z,13.48
2022-09-10T18:14:08.252Z,13.49
2022-09-10T18:16:37.935Z,13.49
2022-09-10T18:19:13.728Z,13.51
2022-09-10T18:21:44.391Z,13.53
2022-09-10T18:24:15.129Z,13.56
2022-09-10T18:26:45.655Z,13.59
2022-09-10T18:29:17.643Z,13.62
2022-09-10T18:31:48.941Z,13.65
2022-09-10T18:34:23.543Z,13.66
2022-09-10T18:36:55.384Z,13.66
2022-09-10T18:39:24.885Z,13.66
2022-09-10T18:41:53.365Z,13.66
2022-09-10T18:44:27.772Z,13.66
2022-09-10T18:46:55.968Z,13.68
2022-09-10T18:49:25.053Z,13.70
2022-09-10T18:51:55.333Z,13.72
2022-09-10T18:54:28.571Z,13.75
2022-09-10T18:56:57.353Z,13.75
2022-09-10T18:59:25.471Z,13.72
2022-09-10T19:01:55.600Z,13.68
2022-09-10T19:04:25.969Z,13.66
2022-09-10T19:06:54.269Z,13.67
2022-09-10T19:09:24.129Z,13.67
2022-09-10T19:11:53.819Z,13.69
2022-09-10T19:14:30.352Z,13.71
2022-09-10T19:17:00.272Z,13.73
2022-09-10T19:19:31.607Z,13.74
2022-09-10T19:22:03.269Z,13.79
2022-09-10T19:27:19.216Z,13.77
2022-09-10T19:29:49.528Z,13.74
2022-09-10T19:32:19.618Z,13.74
2022-09-10T19:34:52.117Z,13.71
2022-09-10T19:37:20.700Z,13.66
2022-09-10T19:39:48.463Z,13.65
2022-09-10T19:42:17.152Z,13.64
2022-09-10T19:44:45.218Z,13.64
2022-09-10T19:47:12.929Z,13.64
2022-09-10T19:49:40.595Z,13.67
2022-09-10T19:52:09.876Z,13.68
2022-09-10T19:54:37.454Z,13.69
2022-09-10T19:57:05.089Z,13.70
2022-09-10T19:59:32.674Z,13.69
2022-09-10T20:02:00.613Z,13.68
2022-09-10T20:04:28.579Z,13.70
2022-09-10T20:06:56.247Z,13.72
2022-09-10T20:09:24.132Z,13.71
2022-09-10T20:11:51.819Z,13.73
2022-09-10T20:14:20.143Z,13.76
2022-09-10T20:16:47.946Z,13.79
2022-09-10T20:19:21.826Z,13.72
2022-09-10T20:21:49.991Z,13.70
2022-09-10T20:24:17.620Z,13.61
2022-09-10T20:26:46.689Z,13.52
2022-09-10T20:29:20.626Z,13.46
2022-09-10T20:31:48.808Z,13.44
2022-09-10T20:34:19.698Z,13.42
2022-09-10T20:36:51.212Z,13.36
2022-09-10T20:39:22.289Z,13.29
2022-09-10T20:41:50.146Z,13.24
2022-09-10T20:44:18.111Z,13.23
2022-09-10T20:46:45.758Z,13.22
2022-09-10T20:49:16.102Z,13.18
2022-09-10T20:51:44.535Z,13.15
2022-09-10T20:54:15.038Z,13.11
2022-09-10T20:56:43.605Z,13.05
2022-09-10T20:59:16.786Z,12.99
2022-09-10T21:01:45.948Z,12.93
2022-09-10T21:04:14.608Z,12.92
2022-09-10T21:06:42.325Z,12.91
2022-09-10T21:09:11.192Z,12.91
2022-09-10T21:11:39.337Z,12.92
2022-09-10T21:14:08.016Z,12.93
2022-09-10T21:16:38.215Z,12.95
2022-09-10T21:19:12.026Z,12.96
2022-09-10T21:21:41.736Z,12.94
2022-09-10T21:24:14.552Z,12.91
2022-09-10T21:26:43.322Z,12.88
2022-09-10T21:29:16.824Z,12.91
2022-09-10T21:31:45.311Z,12.94
2022-09-10T21:34:14.080Z,12.97
2022-09-10T21:36:43.514Z,13.01
2022-09-10T21:39:16.497Z,13.04
2022-09-10T21:41:49.983Z,13.03
2022-09-10T21:44:20.017Z,13.00
2022-09-10T21:46:49.180Z,12.99
2022-09-10T21:49:18.393Z,12.99
2022-09-10T21:51:46.057Z,12.97
2022-09-10T21:54:18.537Z,12.98
2022-09-10T21:56:47.628Z,12.98
2022-09-10T21:59:16.111Z,12.94
2022-09-10T22:01:46.349Z,12.89
2022-09-10T22:04:18.945Z,12.84
2022-09-10T22:06:49.431Z,12.83
2022-09-10T22:09:17.659Z,12.83
2022-09-10T22:11:47.941Z,12.82
2022-09-10T22:14:21.342Z,12.81
2022-09-10T22:16:49.928Z,12.83
2022-09-10T22:19:21.697Z,12.85
2022-09-10T22:21:50.059Z,12.86
2022-09-10T22:24:20.952Z,12.86
2022-09-10T22:26:49.099Z,12.86
2022-09-10T22:29:18.883Z,12.90
2022-09-10T22:31:47.200Z,12.93
2022-09-10T22:34:16.395Z,12.95
2022-09-10T22:36:45.744Z,12.99
2022-09-10T22:39:17.424Z,12.98
2022-09-10T22:41:46.183Z,12.93
2022-09-10T22:44:14.686Z,12.88
2022-09-10T22:46:42.981Z,12.86
2022-09-10T22:49:10.825Z,12.82
2022-09-10T22:51:41.826Z,12.78
2022-09-10T22:54:10.637Z,12.77
2022-09-10T22:56:39.715Z,12.76
2022-09-10T22:59:12.241Z,12.77
2022-09-10T23:01:40.349Z,12.79
2022-09-10T23:04:09.428Z,12.81
2022-09-10T23:06:38.519Z,12.81
2022-09-10T23:09:14.117Z,12.82
2022-09-10T23:11:44.490Z,12.85
2022-09-10T23:14:15.656Z,12.88
2022-09-10T23:16:47.592Z,12.88
2022-09-10T23:19:25.033Z,12.86
2022-09-10T23:21:54.485Z,12.83
2022-09-10T23:24:24.563Z,12.78
2022-09-10T23:26:53.824Z,12.74
2022-09-10T23:29:23.223Z,12.68
2022-09-10T23:31:55.304Z,12.63
2022-09-10T23:34:23.424Z,12.59
2022-09-10T23:36:52.019Z,12.57
2022-09-10T23:39:24.323Z,12.56
2022-09-10T23:41:54.828Z,12.57
2022-09-10T23:44:22.935Z,12.58
2022-09-10T23:46:50.874Z,12.57
2022-09-10T23:49:18.458Z,12.57
2022-09-10T23:51:46.093Z,12.56
2022-09-10T23:54:13.682Z,12.55
2022-09-10T23:56:41.444Z,12.54
2022-09-10T23:59:10.005Z,12.58
